Time;durP1;ratioP1;P1;durP2;ratioP2;P2;SDS_P1;SDS_P2;PMS_P1;PMS_P2;Temp;Humidity;BMP_temperature;BMP_pressure;BME280_temperature;BME280_humidity;BME280_pressure;Samples;Min_cycle;Max_cycle;Signal;HPM_P1;HPM_P2
2021/12/22 00:01:53;;;;;;;38.15;17.65;;;;;;;;;;5051813;28;20067;-35
2021/12/22 00:04:25;;;;;;;28.30;14.05;;;;;;;;;;5051262;28;20029;-35
2021/12/22 00:06:51;;;;;;;35.83;16.42;;;;;;;;;;5035127;28;20035;-34
2021/12/22 00:09:17;;;;;;;50.25;20.70;;;;;;;;;;5052707;28;20520;-35
2021/12/22 00:11:43;;;;;;;43.05;19.52;;;;;;;;;;5051487;28;20029;-42
2021/12/22 00:14:11;;;;;;;51.30;20.38;;;;;;;;;;5052680;28;20091;-35
2021/12/22 00:16:37;;;;;;;40.75;19.58;;;;;;;;;;5051962;28;20491;-35
2021/12/22 00:19:03;;;;;;;49.35;19.17;;;;;;;;;;5051942;28;20037;-35
2021/12/22 00:21:29;;;;;;;36.30;16.17;;;;;;;;;;5051975;28;20017;-35
2021/12/22 00:23:55;;;;;;;39.83;18.50;;;;;;;;;;5052926;28;20032;-35
2021/12/22 00:26:21;;;;;;;40.45;18.77;;;;;;;;;;5052877;28;20025;-35
2021/12/22 00:28:48;;;;;;;35.33;17.02;;;;;;;;;;5052882;28;20021;-35
2021/12/22 00:31:15;;;;;;;41.25;17.83;;;;;;;;;;5052512;28;20029;-35
2021/12/22 00:33:50;;;;;;;41.92;20.02;;;;;;;;;;5052815;28;20036;-35
2021/12/22 00:36:19;;;;;;;36.03;17.55;;;;;;;;;;5052584;28;20120;-35
2021/12/22 00:38:45;;;;;;;31.17;15.40;;;;;;;;;;5051451;28;20033;-35
2021/12/22 00:41:11;;;;;;;35.42;15.43;;;;;;;;;;5051379;28;20032;-35
2021/12/22 00:43:37;;;;;;;29.33;15.10;;;;;;;;;;5052035;28;20017;-35
2021/12/22 00:46:04;;;;;;;21.90;10.65;;;;;;;;;;5052370;28;20082;-34
2021/12/22 00:48:30;;;;;;;11.20;6.95;;;;;;;;;;5052335;28;20024;-34
2021/12/22 00:50:56;;;;;;;3.63;3.35;;;;;;;;;;5052577;28;20393;-34
2021/12/22 00:53:22;;;;;;;9.35;5.20;;;;;;;;;;5052231;28;20029;-34
2021/12/22 00:55:48;;;;;;;3.92;2.45;;;;;;;;;;5052216;28;20028;-35
2021/12/22 00:58:14;;;;;;;12.68;8.85;;;;;;;;;;5052140;28;20037;-34
2021/12/22 01:00:40;;;;;;;20.63;11.50;;;;;;;;;;5052225;28;20021;-34
2021/12/22 01:03:06;;;;;;;14.82;8.40;;;;;;;;;;5052182;28;20477;-34
2021/12/22 01:05:32;;;;;;;23.98;12.05;;;;;;;;;;5052018;28;20033;-34
2021/12/22 01:07:58;;;;;;;25.45;12.60;;;;;;;;;;5052184;28;20035;-34
2021/12/22 01:10:27;;;;;;;34.38;14.80;;;;;;;;;;5052118;28;20023;-35
2021/12/22 01:12:55;;;;;;;30.10;14.60;;;;;;;;;;5052209;28;20021;-35
2021/12/22 01:15:21;;;;;;;23.77;11.98;;;;;;;;;;5052115;28;20059;-35
2021/12/22 01:17:51;;;;;;;38.03;15.02;;;;;;;;;;5033939;28;20032;-35
2021/12/22 01:20:27;;;;;;;18.05;8.88;;;;;;;;;;5052357;28;20053;-34
2021/12/22 01:23:02;;;;;;;35.42;14.75;;;;;;;;;;5052316;28;20033;-35
2021/12/22 01:25:28;;;;;;;29.95;14.27;;;;;;;;;;5052360;28;20063;-35
2021/12/22 01:27:54;;;;;;;40.60;16.23;;;;;;;;;;5051892;28;20041;-35
2021/12/22 01:30:24;;;;;;;26.88;13.23;;;;;;;;;;5052293;28;20135;-35
2021/12/22 01:32:57;;;;;;;29.88;14.32;;;;;;;;;;5054590;28;20162;-34
2021/12/22 01:35:26;;;;;;;31.13;15.20;;;;;;;;;;5055863;28;20029;-35
2021/12/22 01:37:51;;;;;;;27.45;13.55;;;;;;;;;;5055660;28;20071;-35
2021/12/22 01:40:19;;;;;;;31.30;14.05;;;;;;;;;;5055801;28;20049;-35
2021/12/22 01:42:45;;;;;;;37.58;14.65;;;;;;;;;;5056034;28;20029;-35
2021/12/22 01:45:36;;;;;;;21.25;9.75;;;;;;;;;;5055941;28;20052;-35
2021/12/22 01:50:53;;;;;;;28.13;13.52;;;;;;;;;;5055869;28;20389;-35
2021/12/22 01:53:21;;;;;;;29.08;12.80;;;;;;;;;;5055527;28;20040;-35
2021/12/22 01:56:25;;;;;;;31.73;14.07;;;;;;;;;;5055521;28;20036;-35
2021/12/22 01:58:53;;;;;;;28.00;12.23;;;;;;;;;;5043238;28;20045;-35
2021/12/22 02:01:20;;;;;;;29.98;14.25;;;;;;;;;;5055312;28;20381;-35
2021/12/22 02:03:48;;;;;;;29.90;12.90;;;;;;;;;;5055632;28;20017;-34
2021/12/22 02:06:15;;;;;;;28.52;14.02;;;;;;;;;;5055337;28;20469;-35
2021/12/22 02:08:44;;;;;;;31.55;14.05;;;;;;;;;;5055478;28;20127;-35
2021/12/22 02:11:10;;;;;;;24.17;13.80;;;;;;;;;;5055446;28;20032;-35
2021/12/22 02:13:40;;;;;;;29.92;12.73;;;;;;;;;;5055133;28;20045;-34
2021/12/22 02:16:10;;;;;;;35.47;14.93;;;;;;;;;;5055489;28;20025;-35
2021/12/22 02:18:39;;;;;;;27.73;13.82;;;;;;;;;;5055040;28;20040;-34
2021/12/22 02:21:06;;;;;;;28.65;12.80;;;;;;;;;;5055073;28;20032;-34
2021/12/22 02:23:33;;;;;;;29.20;13.75;;;;;;;;;;5055132;28;20033;-35
2021/12/22 02:26:07;;;;;;;33.25;15.10;;;;;;;;;;5055183;28;20365;-35
2021/12/22 02:28:35;;;;;;;28.05;14.25;;;;;;;;;;5055165;28;20087;-34
2021/12/22 02:31:01;;;;;;;33.22;14.68;;;;;;;;;;5055069;28;20017;-34
2021/12/22 02:33:35;;;;;;;27.00;14.55;;;;;;;;;;5054707;28;20457;-35
2021/12/22 02:38:40;;;;;;;34.05;12.90;;;;;;;;;;5054985;28;20047;-34
2021/12/22 02:41:11;;;;;;;25.67;11.73;;;;;;;;;;5054997;28;20065;-34
2021/12/22 02:43:45;;;;;;;26.63;13.07;;;;;;;;;;5053486;28;20025;-34
2021/12/22 02:46:11;;;;;;;32.85;13.88;;;;;;;;;;5054738;28;20388;-35
2021/12/22 02:48:37;;;;;;;35.20;14.32;;;;;;;;;;5054783;28;20021;-34
2021/12/22 02:51:03;;;;;;;25.15;12.45;;;;;;;;;;5054457;28;20017;-34
2021/12/22 02:53:43;;;;;;;34.13;13.32;;;;;;;;;;5054353;28;20027;-35
2021/12/22 02:56:26;;;;;;;32.80;15.10;;;;;;;;;;5054618;28;20371;-35
2021/12/22 03:02:08;;;;;;;31.92;13.95;;;;;;;;;;5054588;28;20033;-35
2021/12/22 03:04:13;;;;;;;14.15;7.50;;;;;;;;;;5050131;28;20086;-34
2021/12/22 03:06:47;;;;;;;22.33;11.30;;;;;;;;;;5054356;28;20025;-34
2021/12/22 03:09:16;;;;;;;19.90;10.40;;;;;;;;;;5036286;28;20474;-34
2021/12/22 03:11:42;;;;;;;15.68;5.72;;;;;;;;;;5054108;28;20484;-34
2021/12/22 03:14:07;;;;;;;15.15;6.78;;;;;;;;;;5053839;28;20048;-34
2021/12/22 03:16:33;;;;;;;5.82;4.28;;;;;;;;;;5054275;28;20033;-34
2021/12/22 03:18:58;;;;;;;14.02;7.30;;;;;;;;;;5054083;28;20032;-34
2021/12/22 03:21:24;;;;;;;34.03;16.33;;;;;;;;;;5053881;28;20473;-35
2021/12/22 03:23:52;;;;;;;41.88;18.08;;;;;;;;;;5054171;28;20025;-34
2021/12/22 03:26:18;;;;;;;40.67;19.00;;;;;;;;;;5054090;28;20078;-34
2021/12/22 03:28:47;;;;;;;35.63;17.23;;;;;;;;;;5053993;28;20017;-35
2021/12/22 03:31:14;;;;;;;43.83;20.52;;;;;;;;;;5053718;28;20016;-34
2021/12/22 03:33:41;;;;;;;39.40;18.20;;;;;;;;;;5053601;28;20029;-35
2021/12/22 03:36:07;;;;;;;42.83;18.52;;;;;;;;;;5053580;28;20064;-35
2021/12/22 03:38:35;;;;;;;40.63;17.77;;;;;;;;;;5053424;28;20480;-35
2021/12/22 03:41:01;;;;;;;32.17;18.42;;;;;;;;;;5053446;28;20033;-35
2021/12/22 03:43:27;;;;;;;40.58;20.10;;;;;;;;;;5053441;28;20477;-35
2021/12/22 03:45:52;;;;;;;43.40;18.88;;;;;;;;;;5053705;28;20037;-35
2021/12/22 03:48:18;;;;;;;50.67;18.35;;;;;;;;;;5053287;28;20035;-34
2021/12/22 03:50:44;;;;;;;17.15;9.18;;;;;;;;;;5053618;28;20100;-35
2021/12/22 03:53:11;;;;;;;14.30;8.40;;;;;;;;;;5053192;28;20142;-35
2021/12/22 03:55:36;;;;;;;39.58;19.48;;;;;;;;;;5053355;28;20035;-35
2021/12/22 03:58:02;;;;;;;32.85;17.20;;;;;;;;;;5053395;28;20025;-35
2021/12/22 04:00:30;;;;;;;28.92;13.07;;;;;;;;;;5053483;28;20406;-35
2021/12/22 04:02:56;;;;;;;49.90;18.67;;;;;;;;;;5053307;28;20036;-35
2021/12/22 04:05:22;;;;;;;12.05;5.88;;;;;;;;;;5053003;28;20103;-34
2021/12/22 04:07:47;;;;;;;14.18;9.40;;;;;;;;;;5053008;28;20060;-34
2021/12/22 04:10:21;;;;;;;22.23;11.80;;;;;;;;;;5053294;28;20033;-34
2021/12/22 04:12:49;;;;;;;3.70;3.13;;;;;;;;;;5053063;28;20404;-35
2021/12/22 04:15:14;;;;;;;37.38;12.85;;;;;;;;;;5052850;28;20481;-34
2021/12/22 04:17:40;;;;;;;9.82;7.28;;;;;;;;;;5053133;28;20040;-35
2021/12/22 04:20:06;;;;;;;34.22;17.67;;;;;;;;;;5052702;28;20071;-34
2021/12/22 04:22:31;;;;;;;24.98;10.60;;;;;;;;;;5052784;28;20029;-35
2021/12/22 04:24:57;;;;;;;40.22;19.02;;;;;;;;;;5052659;28;20033;-35
2021/12/22 04:27:22;;;;;;;25.45;15.60;;;;;;;;;;5052679;28;20025;-35
2021/12/22 04:29:48;;;;;;;23.00;11.82;;;;;;;;;;5052935;28;20040;-35
2021/12/22 04:32:13;;;;;;;30.38;14.32;;;;;;;;;;5052671;28;20385;-34
2021/12/22 04:34:39;;;;;;;31.50;14.52;;;;;;;;;;5052830;28;20108;-35
2021/12/22 04:37:04;;;;;;;40.05;17.05;;;;;;;;;;5052746;28;20032;-36
2021/12/22 04:39:32;;;;;;;33.45;15.50;;;;;;;;;;5052736;28;20025;-35
2021/12/22 04:41:59;;;;;;;31.65;15.82;;;;;;;;;;5052467;28;20369;-35
2021/12/22 04:44:25;;;;;;;35.70;17.02;;;;;;;;;;5052378;28;20021;-35
2021/12/22 04:46:50;;;;;;;46.50;20.00;;;;;;;;;;5052572;28;20025;-34
2021/12/22 04:49:16;;;;;;;31.30;14.75;;;;;;;;;;5052348;28;20036;-34
2021/12/22 04:51:48;;;;;;;33.95;16.35;;;;;;;;;;5052605;28;20059;-34
2021/12/22 04:54:19;;;;;;;39.67;16.70;;;;;;;;;;5052346;28;20029;-35
2021/12/22 04:56:45;;;;;;;41.60;16.27;;;;;;;;;;5052527;28;20052;-35
2021/12/22 04:59:11;;;;;;;33.65;15.82;;;;;;;;;;5052050;28;20060;-34
2021/12/22 05:01:37;;;;;;;29.55;13.60;;;;;;;;;;5052118;28;20473;-34
2021/12/22 05:04:02;;;;;;;28.70;14.75;;;;;;;;;;5052181;28;20064;-34
2021/12/22 05:06:28;;;;;;;27.10;12.65;;;;;;;;;;5035769;28;20219;-34
2021/12/22 05:08:54;;;;;;;30.13;14.45;;;;;;;;;;5058676;28;20029;-35
2021/12/22 05:11:19;;;;;;;26.40;13.80;;;;;;;;;;5041040;28;20021;-35
2021/12/22 05:13:45;;;;;;;28.83;15.57;;;;;;;;;;5058618;28;20041;-34
2021/12/22 05:16:17;;;;;;;36.20;14.70;;;;;;;;;;5059035;28;20035;-35
2021/12/22 05:21:15;;;;;;;31.75;14.50;;;;;;;;;;5059023;28;20060;-35
2021/12/22 05:23:41;;;;;;;32.20;16.08;;;;;;;;;;5059095;28;20020;-34
2021/12/22 05:26:07;;;;;;;9.48;3.70;;;;;;;;;;5058793;28;20480;-35
2021/12/22 05:28:32;;;;;;;9.82;8.05;;;;;;;;;;5058805;28;20121;-35
2021/12/22 05:30:58;;;;;;;15.50;7.93;;;;;;;;;;5058950;28;20067;-35
2021/12/22 05:33:23;;;;;;;16.52;9.93;;;;;;;;;;5058689;28;20484;-35
2021/12/22 05:35:49;;;;;;;9.63;5.63;;;;;;;;;;5058546;28;20017;-34
2021/12/22 05:38:15;;;;;;;15.38;7.65;;;;;;;;;;5058822;28;20037;-35
2021/12/22 05:40:40;;;;;;;29.00;16.17;;;;;;;;;;5058587;28;20477;-35
2021/12/22 05:43:06;;;;;;;28.90;13.98;;;;;;;;;;5058844;28;20167;-35
2021/12/22 05:45:31;;;;;;;26.15;13.35;;;;;;;;;;5058554;28;20384;-36
2021/12/22 05:47:57;;;;;;;36.50;16.00;;;;;;;;;;5058504;28;20028;-35
2021/12/22 05:50:24;;;;;;;35.28;17.45;;;;;;;;;;5058551;28;20035;-35
2021/12/22 05:52:50;;;;;;;41.47;16.13;;;;;;;;;;5058739;28;20453;-35
2021/12/22 05:55:16;;;;;;;28.83;13.23;;;;;;;;;;5058407;28;20036;-36
2021/12/22 05:57:42;;;;;;;31.75;16.02;;;;;;;;;;5058300;28;20029;-35
2021/12/22 06:00:09;;;;;;;13.90;6.55;;;;;;;;;;5058601;28;20036;-35
2021/12/22 06:02:34;;;;;;;5.93;5.10;;;;;;;;;;5058627;28;20025;-35
2021/12/22 06:05:00;;;;;;;33.42;13.80;;;;;;;;;;5058636;28;20569;-35
2021/12/22 06:07:25;;;;;;;23.95;11.20;;;;;;;;;;5058544;28;20029;-35
2021/12/22 06:09:51;;;;;;;27.92;13.80;;;;;;;;;;5058295;28;20021;-35
2021/12/22 06:12:16;;;;;;;32.53;14.60;;;;;;;;;;5058330;28;20052;-35
2021/12/22 06:14:42;;;;;;;29.52;13.68;;;;;;;;;;5057975;28;20095;-35
2021/12/22 06:17:07;;;;;;;29.95;14.32;;;;;;;;;;5058405;28;20036;-35
2021/12/22 06:19:33;;;;;;;31.13;14.30;;;;;;;;;;5055241;28;20455;-35
2021/12/22 06:21:59;;;;;;;30.00;15.27;;;;;;;;;;5055260;28;20037;-36
2021/12/22 06:24:24;;;;;;;32.40;14.18;;;;;;;;;;5055293;28;20496;-36
2021/12/22 06:26:50;;;;;;;34.72;14.13;;;;;;;;;;5055169;28;20102;-36
2021/12/22 06:29:15;;;;;;;27.40;14.60;;;;;;;;;;5055003;28;20431;-35
2021/12/22 06:31:41;;;;;;;7.90;5.40;;;;;;;;;;5037233;28;20025;-35
2021/12/22 06:34:06;;;;;;;17.15;9.77;;;;;;;;;;5055036;28;20465;-35
2021/12/22 06:36:32;;;;;;;16.70;9.80;;;;;;;;;;5054996;28;20025;-35
2021/12/22 06:38:58;;;;;;;27.35;12.52;;;;;;;;;;5054450;28;20115;-35
2021/12/22 06:41:24;;;;;;;28.33;14.70;;;;;;;;;;5054708;28;20106;-35
2021/12/22 06:43:50;;;;;;;22.33;10.82;;;;;;;;;;5054636;28;20020;-36
2021/12/22 06:46:15;;;;;;;13.18;7.18;;;;;;;;;;5054610;28;20028;-36
2021/12/22 06:48:41;;;;;;;16.10;9.18;;;;;;;;;;5054772;28;20064;-35
2021/12/22 06:51:06;;;;;;;26.80;12.23;;;;;;;;;;5054702;28;20385;-36
2021/12/22 06:53:34;;;;;;;19.73;10.55;;;;;;;;;;5054693;28;20477;-36
2021/12/22 06:56:00;;;;;;;1.52;1.48;;;;;;;;;;5054371;28;20029;-36
2021/12/22 06:58:26;;;;;;;2.65;2.30;;;;;;;;;;5054562;28;20062;-35
2021/12/22 07:00:52;;;;;;;3.05;2.83;;;;;;;;;;5054473;28;20501;-35
2021/12/22 07:03:17;;;;;;;10.55;5.03;;;;;;;;;;5054520;28;20846;-35
2021/12/22 07:05:43;;;;;;;3.25;2.38;;;;;;;;;;5036337;28;20021;-35
2021/12/22 07:08:09;;;;;;;9.57;5.30;;;;;;;;;;5054401;28;20052;-35
2021/12/22 07:10:34;;;;;;;19.08;8.25;;;;;;;;;;5054326;28;20506;-35
2021/12/22 07:13:00;;;;;;;17.52;9.65;;;;;;;;;;5053322;28;20029;-36
2021/12/22 07:15:26;;;;;;;26.13;13.27;;;;;;;;;;5053742;28;20021;-35
2021/12/22 07:17:52;;;;;;;24.38;12.65;;;;;;;;;;5053951;28;20087;-36
2021/12/22 07:20:18;;;;;;;25.63;12.80;;;;;;;;;;5053749;28;20033;-35
2021/12/22 07:22:44;;;;;;;36.83;15.68;;;;;;;;;;5053745;28;20025;-36
2021/12/22 07:25:12;;;;;;;37.47;16.65;;;;;;;;;;5053712;28;20119;-36
2021/12/22 07:27:38;;;;;;;36.13;16.95;;;;;;;;;;5053658;28;20025;-36
2021/12/22 07:30:05;;;;;;;44.90;20.55;;;;;;;;;;5052850;28;20025;-35
2021/12/22 07:32:30;;;;;;;42.80;20.65;;;;;;;;;;5053546;28;20044;-36
2021/12/22 07:35:07;;;;;;;35.08;18.70;;;;;;;;;;5053769;28;20603;-36
2021/12/22 07:37:46;;;;;;;33.63;17.05;;;;;;;;;;5053406;28;20036;-36
2021/12/22 07:40:15;;;;;;;37.30;16.73;;;;;;;;;;5053449;28;20035;-36
2021/12/22 07:42:42;;;;;;;33.80;17.48;;;;;;;;;;5053439;28;20473;-35
2021/12/22 07:45:09;;;;;;;43.75;20.10;;;;;;;;;;5053376;28;20382;-36
2021/12/22 07:47:34;;;;;;;36.70;17.30;;;;;;;;;;5053377;28;20112;-36
2021/12/22 07:50:00;;;;;;;30.13;15.55;;;;;;;;;;5053196;28;20112;-36
2021/12/22 07:52:27;;;;;;;32.63;15.85;;;;;;;;;;5053629;28;20044;-36
2021/12/22 07:54:54;;;;;;;26.65;14.15;;;;;;;;;;5053355;28;20507;-36
2021/12/22 07:57:20;;;;;;;24.02;13.38;;;;;;;;;;5053496;28;20412;-36
2021/12/22 07:59:45;;;;;;;11.30;6.85;;;;;;;;;;5053345;28;20027;-36
2021/12/22 08:02:12;;;;;;;9.27;6.63;;;;;;;;;;5053260;28;20021;-36
2021/12/22 08:04:38;;;;;;;19.20;5.45;;;;;;;;;;5052936;28;20462;-36
2021/12/22 08:07:04;;;;;;;10.35;7.63;;;;;;;;;;5052951;28;20376;-36
2021/12/22 08:09:30;;;;;;;24.05;12.63;;;;;;;;;;5052827;28;20104;-35
2021/12/22 08:12:04;;;;;;;10.50;6.72;;;;;;;;;;5053211;28;20373;-36
2021/12/22 08:14:30;;;;;;;16.20;9.27;;;;;;;;;;5052685;28;20558;-36
2021/12/22 08:16:56;;;;;;;8.85;5.68;;;;;;;;;;5053069;28;20381;-36
2021/12/22 08:19:21;;;;;;;5.75;5.25;;;;;;;;;;5052578;28;20039;-35
2021/12/22 08:21:46;;;;;;;5.45;2.75;;;;;;;;;;5052540;28;20060;-36
2021/12/22 08:24:13;;;;;;;3.88;3.35;;;;;;;;;;5052656;28;20031;-35
2021/12/22 08:26:39;;;;;;;3.83;3.47;;;;;;;;;;5052510;28;20029;-36
2021/12/22 08:29:05;;;;;;;3.50;2.75;;;;;;;;;;5050883;28;20033;-37
2021/12/22 08:31:30;;;;;;;4.15;3.40;;;;;;;;;;5050604;28;20095;-36
2021/12/22 08:33:56;;;;;;;17.23;9.95;;;;;;;;;;5050636;28;20036;-36
2021/12/22 08:39:10;;;;;;;10.32;6.00;;;;;;;;;;5051469;28;20163;-35
2021/12/22 08:41:40;;;;;;;21.73;11.00;;;;;;;;;;5051596;28;20025;-35
2021/12/22 08:44:07;;;;;;;;;;;;;;;;;;5053035;28;20025;-36
2021/12/22 08:46:35;;;;;;;19.00;10.95;;;;;;;;;;5051914;28;19913;-35
2021/12/22 08:49:03;;;;;;;14.18;8.13;;;;;;;;;;5052461;28;20108;-37
2021/12/22 08:51:29;;;;;;;17.75;10.30;;;;;;;;;;5052256;28;20029;-36
2021/12/22 08:53:54;;;;;;;12.63;7.93;;;;;;;;;;5052391;28;20117;-36
2021/12/22 08:56:21;;;;;;;23.05;12.05;;;;;;;;;;5051425;28;20467;-37
2021/12/22 08:58:47;;;;;;;19.98;11.30;;;;;;;;;;5052108;28;20558;-36
2021/12/22 09:01:13;;;;;;;18.48;10.07;;;;;;;;;;5052413;28;20025;-37
2021/12/22 09:03:38;;;;;;;23.02;14.02;;;;;;;;;;5051633;28;20025;-36
2021/12/22 09:06:04;;;;;;;24.67;13.98;;;;;;;;;;5051918;28;20025;-37
2021/12/22 09:08:29;;;;;;;26.98;14.35;;;;;;;;;;5052382;28;20035;-37
2021/12/22 09:10:55;;;;;;;20.80;12.10;;;;;;;;;;5052270;28;20376;-38
2021/12/22 09:13:21;;;;;;;14.25;9.98;;;;;;;;;;5051247;28;20047;-38
2021/12/22 09:15:47;;;;;;;16.55;10.48;;;;;;;;;;5051960;28;20025;-38
2021/12/22 09:18:13;;;;;;;9.32;6.10;;;;;;;;;;5051884;28;20028;-36
2021/12/22 09:20:39;;;;;;;13.80;8.23;;;;;;;;;;5052253;28;20029;-36
2021/12/22 09:23:04;;;;;;;12.48;7.07;;;;;;;;;;5051930;28;20027;-36
2021/12/22 09:25:30;;;;;;;12.40;8.80;;;;;;;;;;5052263;28;20033;-36
2021/12/22 09:27:58;;;;;;;16.42;8.98;;;;;;;;;;5051904;28;20036;-38
2021/12/22 09:30:24;;;;;;;15.70;7.78;;;;;;;;;;5052190;28;20422;-35
2021/12/22 09:32:49;;;;;;;24.88;14.18;;;;;;;;;;5052407;28;20078;-36
2021/12/22 09:35:15;;;;;;;18.63;11.23;;;;;;;;;;5052453;28;20029;-38
2021/12/22 09:37:41;;;;;;;22.10;12.55;;;;;;;;;;5034522;28;20052;-36
2021/12/22 09:40:10;;;;;;;12.82;8.65;;;;;;;;;;5052049;28;20040;-39
2021/12/22 09:42:36;;;;;;;17.25;9.75;;;;;;;;;;5034472;28;20025;-36
2021/12/22 09:45:02;;;;;;;18.52;9.70;;;;;;;;;;5051487;28;20021;-36
2021/12/22 09:47:32;;;;;;;20.75;9.90;;;;;;;;;;5052017;28;20040;-38
2021/12/22 09:50:09;;;;;;;12.52;7.30;;;;;;;;;;5052222;28;20025;-37
2021/12/22 09:52:37;;;;;;;7.47;5.05;;;;;;;;;;5048659;28;20032;-35
2021/12/22 09:55:05;;;;;;;11.90;5.95;;;;;;;;;;5055603;28;20389;-36
2021/12/22 09:57:31;;;;;;;19.25;5.97;;;;;;;;;;5054410;28;20174;-39
2021/12/22 09:59:59;;;;;;;13.45;8.70;;;;;;;;;;5054370;28;20030;-37
2021/12/22 10:02:29;;;;;;;16.33;8.40;;;;;;;;;;5054339;28;20040;-39
2021/12/22 10:04:58;;;;;;;9.27;6.13;;;;;;;;;;5036442;28;20033;-39
2021/12/22 10:07:30;;;;;;;14.43;8.33;;;;;;;;;;5053708;28;20025;-37
2021/12/22 10:10:04;;;;;;;7.30;4.95;;;;;;;;;;5054424;28;20583;-39
2021/12/22 10:12:31;;;;;;;12.52;7.07;;;;;;;;;;5054087;28;20108;-39
2021/12/22 10:15:00;;;;;;;14.60;7.75;;;;;;;;;;5053606;28;20040;-39
2021/12/22 10:17:37;;;;;;;10.25;4.90;;;;;;;;;;5053971;28;20123;-40
2021/12/22 10:20:15;;;;;;;20.38;10.50;;;;;;;;;;5053466;28;20039;-39
2021/12/22 10:22:50;;;;;;;8.35;5.10;;;;;;;;;;5053608;28;20037;-39
2021/12/22 10:25:25;;;;;;;10.25;6.65;;;;;;;;;;5053405;28;20136;-39
2021/12/22 10:28:04;;;;;;;15.07;7.93;;;;;;;;;;5053851;28;20108;-35
2021/12/22 10:30:33;;;;;;;9.18;6.25;;;;;;;;;;5053319;28;20484;-39
2021/12/22 10:33:06;;;;;;;10.48;6.50;;;;;;;;;;5035493;28;20120;-37
2021/12/22 10:35:33;;;;;;;12.50;7.00;;;;;;;;;;5053378;28;20071;-38
2021/12/22 10:38:00;;;;;;;14.60;6.15;;;;;;;;;;5053164;28;20032;-38
2021/12/22 10:40:32;;;;;;;17.38;9.23;;;;;;;;;;5053200;28;20124;-38
2021/12/22 10:42:59;;;;;;;10.65;6.15;;;;;;;;;;5053011;28;20110;-38
2021/12/22 10:45:28;;;;;;;12.50;8.00;;;;;;;;;;5053487;28;20037;-35
2021/12/22 10:50:45;;;;;;;12.35;7.63;;;;;;;;;;5053662;28;20036;-38
2021/12/22 10:53:15;;;;;;;11.80;7.88;;;;;;;;;;5053108;28;20091;-38
2021/12/22 10:55:45;;;;;;;7.17;3.73;;;;;;;;;;5052997;28;20033;-39
2021/12/22 10:58:29;;;;;;;14.45;8.23;;;;;;;;;;5052587;28;20029;-39
2021/12/22 11:01:14;;;;;;;8.77;5.95;;;;;;;;;;5052702;28;20560;-38
2021/12/22 11:03:48;;;;;;;8.10;5.47;;;;;;;;;;5052973;28;20041;-40
2021/12/22 11:06:28;;;;;;;8.43;5.68;;;;;;;;;;5052300;28;20105;-37
2021/12/22 11:08:58;;;;;;;12.35;6.50;;;;;;;;;;5052767;28;20083;-37
2021/12/22 11:11:28;;;;;;;14.00;6.88;;;;;;;;;;5052412;28;20033;-36
2021/12/22 11:14:13;;;;;;;8.20;5.22;;;;;;;;;;5052345;28;20092;-39
2021/12/22 11:16:54;;;;;;;6.55;4.47;;;;;;;;;;5052521;28;20033;-38
2021/12/22 11:19:20;;;;;;;;;;;;;;;;;;5052972;28;20037;-38
2021/12/22 11:22:01;;;;;;;9.82;6.40;;;;;;;;;;5052192;28;20390;-38
2021/12/22 11:24:28;;;;;;;17.02;5.25;;;;;;;;;;5052249;28;20028;-39
2021/12/22 11:26:54;;;;;;;11.40;5.97;;;;;;;;;;5052556;28;20024;-36
2021/12/22 11:29:21;;;;;;;12.63;5.47;;;;;;;;;;5052213;28;20032;-37
2021/12/22 11:31:48;;;;;;;13.40;7.45;;;;;;;;;;5034092;28;20040;-36
2021/12/22 11:34:17;;;;;;;10.60;5.93;;;;;;;;;;5051689;28;20069;-38
2021/12/22 11:36:44;;;;;;;8.18;5.40;;;;;;;;;;5052042;28;20039;-37
2021/12/22 11:39:10;;;;;;;13.50;6.53;;;;;;;;;;5051952;28;20021;-38
2021/12/22 11:41:55;;;;;;;10.95;7.15;;;;;;;;;;5051969;28;20032;-36
2021/12/22 11:44:29;;;;;;;9.80;5.93;;;;;;;;;;5052182;28;20086;-38
2021/12/22 11:46:57;;;;;;;11.32;5.05;;;;;;;;;;5052010;28;20063;-38
2021/12/22 11:49:24;;;;;;;9.88;5.18;;;;;;;;;;5052205;28;20107;-39
2021/12/22 11:51:50;;;;;;;10.75;6.35;;;;;;;;;;5052005;28;20032;-38
2021/12/22 11:54:16;;;;;;;14.88;7.32;;;;;;;;;;5051829;28;20354;-39
2021/12/22 11:56:48;;;;;;;14.00;8.20;;;;;;;;;;5051946;28;20481;-36
2021/12/22 11:59:32;;;;;;;15.43;8.30;;;;;;;;;;5050961;28;20029;-36
2021/12/22 12:02:22;;;;;;;12.02;7.60;;;;;;;;;;5051625;28;20159;-37
2021/12/22 12:04:54;;;;;;;13.13;7.25;;;;;;;;;;5050350;28;20048;-38
2021/12/22 12:07:42;;;;;;;5.93;4.43;;;;;;;;;;5051170;28;20072;-36
2021/12/22 12:10:36;;;;;;;5.50;2.78;;;;;;;;;;5051467;28;20032;-37
2021/12/22 12:13:23;;;;;;;10.07;4.97;;;;;;;;;;5051099;28;20432;-37
2021/12/22 12:22:36;;;;;;;5.18;4.20;;;;;;;;;;5051391;28;20151;-35
2021/12/22 12:25:08;;;;;;;7.65;3.42;;;;;;;;;;5051389;28;20715;-36
2021/12/22 12:27:53;;;;;;;4.45;2.65;;;;;;;;;;5051240;28;20029;-36
2021/12/22 12:30:43;;;;;;;5.20;3.28;;;;;;;;;;5050944;28;20039;-36
2021/12/22 12:33:11;;;;;;;8.80;4.30;;;;;;;;;;5051376;28;20071;-36
2021/12/22 12:35:50;;;;;;;4.97;2.72;;;;;;;;;;5050750;28;20116;-37
2021/12/22 12:38:27;;;;;;;5.80;3.22;;;;;;;;;;5051178;28;20033;-38
2021/12/22 12:41:00;;;;;;;3.55;3.03;;;;;;;;;;5050964;28;20057;-37
2021/12/22 12:43:54;;;;;;;3.95;2.75;;;;;;;;;;5051338;28;20064;-38
2021/12/22 12:49:08;;;;;;;4.28;2.88;;;;;;;;;;5050468;28;20025;-36
2021/12/22 12:51:54;;;;;;;11.45;5.45;;;;;;;;;;5051047;28;20029;-37
2021/12/22 12:54:28;;;;;;;5.85;3.78;;;;;;;;;;5050853;28;20053;-36
2021/12/22 12:56:58;;;;;;;11.43;6.03;;;;;;;;;;5050575;28;20052;-37
2021/12/22 12:59:38;;;;;;;10.70;5.22;;;;;;;;;;5050709;28;20469;-36
2021/12/22 13:02:12;;;;;;;8.07;4.38;;;;;;;;;;5050349;28;20091;-38
2021/12/22 13:04:42;;;;;;;3.55;2.20;;;;;;;;;;5050563;28;20025;-38
2021/12/22 13:07:15;;;;;;;2.97;2.38;;;;;;;;;;5050223;28;20041;-38
2021/12/22 13:09:43;;;;;;;9.45;6.22;;;;;;;;;;5050301;28;20035;-38
2021/12/22 13:13:14;;;;;;;8.35;4.55;;;;;;;;;;5050077;28;20420;-37
2021/12/22 13:18:12;;;;;;;11.23;6.38;;;;;;;;;;5050203;28;20102;-37
2021/12/22 13:20:41;;;;;;;7.05;4.88;;;;;;;;;;5050328;28;20033;-37
2021/12/22 13:23:12;;;;;;;7.07;3.85;;;;;;;;;;5050446;28;20025;-36
2021/12/22 13:25:42;;;;;;;13.43;6.55;;;;;;;;;;5050596;28;20405;-37
2021/12/22 13:28:13;;;;;;;;;;;;;;;;;;5052239;28;20037;-36
2021/12/22 13:30:47;;;;;;;8.52;5.22;;;;;;;;;;5054821;28;20279;-37
2021/12/22 13:33:14;;;;;;;14.13;5.18;;;;;;;;;;5054595;28;20044;-37
2021/12/22 13:35:43;;;;;;;8.68;3.67;;;;;;;;;;5054736;28;20126;-36
2021/12/22 13:38:24;;;;;;;5.90;3.50;;;;;;;;;;5054679;28;20040;-36
2021/12/22 13:40:56;;;;;;;7.78;3.67;;;;;;;;;;5054811;28;20047;-38
2021/12/22 13:43:25;;;;;;;4.80;3.03;;;;;;;;;;5054764;28;20037;-36
2021/12/22 13:45:53;;;;;;;5.63;3.13;;;;;;;;;;5054742;28;20543;-39
2021/12/22 13:48:27;;;;;;;6.93;3.88;;;;;;;;;;5054527;28;20278;-37
2021/12/22 13:50:56;;;;;;;4.82;3.47;;;;;;;;;;5054655;28;20025;-36
2021/12/22 13:53:23;;;;;;;7.38;3.45;;;;;;;;;;5053987;28;20029;-36
2021/12/22 13:55:51;;;;;;;6.70;3.67;;;;;;;;;;5054646;28;20465;-37
2021/12/22 13:58:37;;;;;;;2.63;2.25;;;;;;;;;;5054145;28;20075;-36
2021/12/22 14:01:22;;;;;;;5.05;3.60;;;;;;;;;;5054484;28;20036;-37
2021/12/22 14:04:09;;;;;;;3.20;2.42;;;;;;;;;;5054062;28;20028;-36
2021/12/22 14:06:40;;;;;;;7.68;2.88;;;;;;;;;;5053508;28;20043;-36
2021/12/22 14:09:07;;;;;;;6.22;3.63;;;;;;;;;;5054077;28;20060;-36
2021/12/22 14:11:44;;;;;;;3.15;2.63;;;;;;;;;;5054128;28;20031;-36
2021/12/22 14:14:27;;;;;;;6.35;3.17;;;;;;;;;;5053493;28;20052;-36
2021/12/22 14:17:12;;;;;;;3.58;2.42;;;;;;;;;;5053735;28;20033;-36
2021/12/22 14:19:57;;;;;;;2.33;2.13;;;;;;;;;;5053795;28;20123;-36
2021/12/22 14:22:29;;;;;;;5.63;3.20;;;;;;;;;;5053892;28;20029;-35
2021/12/22 14:25:22;;;;;;;3.33;2.72;;;;;;;;;;5053476;28;20040;-35
2021/12/22 14:27:49;;;;;;;3.58;2.15;;;;;;;;;;5053917;28;20120;-35
2021/12/22 14:30:20;;;;;;;13.05;3.40;;;;;;;;;;5052055;28;20661;-37
2021/12/22 14:33:02;;;;;;;2.42;1.92;;;;;;;;;;5053540;28;20029;-37
2021/12/22 14:35:31;;;;;;;4.97;3.30;;;;;;;;;;5053296;28;20319;-37
2021/12/22 14:38:03;;;;;;;2.88;2.60;;;;;;;;;;5053604;28;20040;-36
2021/12/22 14:40:32;;;;;;;2.85;2.42;;;;;;;;;;5052011;28;20120;-36
2021/12/22 14:43:09;;;;;;;3.10;2.80;;;;;;;;;;5053531;28;20468;-36
2021/12/22 14:45:42;;;;;;;2.42;2.22;;;;;;;;;;5051923;28;20473;-36
2021/12/22 14:48:15;;;;;;;3.90;2.25;;;;;;;;;;5053097;28;20067;-35
2021/12/22 14:51:09;;;;;;;10.27;2.47;;;;;;;;;;5052537;28;20029;-36
2021/12/22 14:53:46;;;;;;;4.70;2.80;;;;;;;;;;5043268;28;20041;-35
2021/12/22 14:56:25;;;;;;;2.22;2.08;;;;;;;;;;5052919;28;20060;-36
2021/12/22 14:58:53;;;;;;;4.43;1.95;;;;;;;;;;5052787;28;20036;-36
2021/12/22 15:01:21;;;;;;;3.42;2.05;;;;;;;;;;5052996;28;20108;-36
2021/12/22 15:03:49;;;;;;;3.00;2.22;;;;;;;;;;5052844;28;20040;-37
2021/12/22 15:06:20;;;;;;;3.72;3.00;;;;;;;;;;5052499;28;20055;-37
2021/12/22 15:08:47;;;;;;;3.15;2.05;;;;;;;;;;5052942;28;20041;-36
2021/12/22 15:11:13;;;;;;;3.90;3.03;;;;;;;;;;5052401;28;20110;-35